Time;durP1;ratioP1;P1;durP2;ratioP2;P2;SDS_P1;SDS_P2;PMS_P1;PMS_P2;Temp;Humidity;BMP_temperature;BMP_pressure;BME280_temperature;BME280_humidity;BME280_pressure;Samples;Min_cycle;Max_cycle;Signal;HPM_P1;HPM_P2
2022/09/13 00:00:28;;;;;;;0.20;0.00;;;25.80;99.90;;;;;;26039433;22;20188;-70
2022/09/13 00:10:33;;;;;;;0.20;0.00;;;25.50;99.90;;;;;;26020121;22;20251;-70
2022/09/13 00:20:39;;;;;;;0.20;0.00;;;25.20;99.90;;;;;;26046887;22;20187;-68
2022/09/13 00:30:42;;;;;;;0.20;0.00;;;24.90;99.90;;;;;;26047960;22;20152;-70
2022/09/13 00:40:48;;;;;;;0.20;0.00;;;24.80;99.90;;;;;;26017995;22;20187;-69
2022/09/13 00:50:54;;;;;;;0.20;0.00;;;24.80;99.90;;;;;;26046429;22;20203;-69
2022/09/13 01:01:03;;;;;;;0.20;0.00;;;24.70;99.90;;;;;;26018307;22;20183;-70
2022/09/13 01:11:12;;;;;;;0.20;0.00;;;24.80;99.90;;;;;;26019582;22;20327;-69
2022/09/13 01:21:50;;;;;;;0.20;0.00;;;24.90;99.90;;;;;;26046121;22;20243;-69
2022/09/13 01:32:07;;;;;;;0.20;0.00;;;24.40;99.90;;;;;;26038496;22;20171;-68
2022/09/13 01:42:19;;;;;;;0.20;0.00;;;24.40;99.90;;;;;;26042769;22;20182;-68
2022/09/13 01:52:30;;;;;;;0.20;0.00;;;24.40;99.90;;;;;;26043195;22;20195;-69
2022/09/13 02:02:38;;;;;;;0.20;0.00;;;24.30;99.90;;;;;;26044241;22;20186;-69
2022/09/13 02:12:45;;;;;;;0.20;0.00;;;24.10;99.90;;;;;;26043856;22;20184;-68
2022/09/13 02:22:53;;;;;;;0.20;0.00;;;24.10;99.90;;;;;;26042332;22;20194;-69
2022/09/13 02:33:05;;;;;;;0.20;0.00;;;24.20;99.90;;;;;;26015015;22;20164;-70
2022/09/13 02:43:12;;;;;;;0.20;0.00;;;24.40;99.90;;;;;;26041750;22;20175;-69
2022/09/13 02:53:25;;;;;;;0.20;0.00;;;24.50;99.90;;;;;;26040811;22;20198;-69
2022/09/13 03:03:29;;;;;;;0.20;0.00;;;24.70;99.90;;;;;;26013419;22;20492;-69
2022/09/13 03:13:58;;;;;;;0.20;0.00;;;24.90;99.90;;;;;;26041240;22;20191;-69
2022/09/13 03:24:10;;;;;;;0.20;0.00;;;24.90;99.90;;;;;;26041562;22;20199;-70
2022/09/13 03:34:23;;;;;;;0.20;0.00;;;25.00;99.90;;;;;;26013110;22;20164;-67
2022/09/13 03:44:29;;;;;;;0.20;0.00;;;25.00;99.90;;;;;;26017427;22;20159;-69
2022/09/13 03:54:37;;;;;;;0.20;0.00;;;25.00;99.90;;;;;;26022353;22;20199;-69
2022/09/13 04:04:42;;;;;;;0.20;0.00;;;25.10;99.90;;;;;;26023491;22;20184;-69
2022/09/13 04:14:48;;;;;;;0.20;0.00;;;25.20;99.90;;;;;;26020548;22;20184;-69
2022/09/13 04:24:51;;;;;;;0.20;0.00;;;25.40;99.90;;;;;;26047263;22;20160;-70
2022/09/13 04:34:56;;;;;;;0.20;0.00;;;25.40;99.90;;;;;;26045103;22;20191;-68
2022/09/13 04:45:00;;;;;;;0.20;0.00;;;25.40;99.90;;;;;;26046337;22;20164;-69
2022/09/13 04:55:07;;;;;;;0.20;0.00;;;25.30;99.90;;;;;;26010294;22;20200;-69
2022/09/13 05:05:10;;;;;;;0.20;0.00;;;25.20;99.90;;;;;;26037133;22;20184;-70
2022/09/13 05:15:16;;;;;;;0.20;0.00;;;24.90;99.90;;;;;;26037447;22;20187;-70
2022/09/13 05:25:20;;;;;;;0.20;0.00;;;24.80;99.90;;;;;;26038344;22;20156;-69
2022/09/13 05:35:29;;;;;;;0.20;0.00;;;24.80;99.90;;;;;;26007252;22;20191;-71
2022/09/13 05:45:33;;;;;;;0.20;0.00;;;24.90;99.90;;;;;;26005796;22;20160;-72
2022/09/13 05:55:38;;;;;;;0.20;0.00;;;25.00;99.90;;;;;;25972978;22;1312479;-68
2022/09/13 06:05:42;;;;;;;0.20;0.00;;;25.20;99.90;;;;;;26000440;22;20187;-68
2022/09/13 06:15:47;;;;;;;0.20;0.00;;;25.60;99.90;;;;;;26040374;22;20184;-70
2022/09/13 06:25:58;;;;;;;0.20;0.00;;;25.50;99.90;;;;;;26038278;22;20236;-70
2022/09/13 06:36:05;;;;;;;0.20;0.00;;;25.60;99.90;;;;;;26008998;22;20179;-69
2022/09/13 06:46:11;;;;;;;0.20;0.00;;;25.90;99.90;;;;;;26011653;22;20178;-70
2022/09/13 06:56:18;;;;;;;0.20;0.00;;;26.20;99.90;;;;;;26036669;22;21178;-69
2022/09/13 07:06:25;;;;;;;0.20;0.00;;;26.60;99.90;;;;;;26037435;22;20239;-68
2022/09/13 07:16:32;;;;;;;0.20;0.00;;;27.10;99.90;;;;;;26035419;22;20183;-69
2022/09/13 07:26:36;;;;;;;0.20;0.00;;;27.30;99.90;;;;;;26008939;22;20164;-69
2022/09/13 07:36:42;;;;;;;0.20;0.00;;;27.60;99.90;;;;;;26036912;22;20271;-68
2022/09/13 07:46:45;;;;;;;0.20;0.00;;;27.70;99.90;;;;;;26038035;22;20153;-69
2022/09/13 07:56:50;;;;;;;0.20;0.00;;;28.00;99.90;;;;;;26039010;22;20206;-68
2022/09/13 08:06:54;;;;;;;0.20;0.00;;;28.80;99.90;;;;;;26011941;22;20185;-68
2022/09/13 08:17:00;;;;;;;0.20;0.00;;;28.40;99.90;;;;;;26008460;22;20180;-69
2022/09/13 08:27:04;;;;;;;0.20;0.00;;;28.10;99.90;;;;;;26038000;22;20163;-68
2022/09/13 08:37:11;;;;;;;0.20;0.00;;;27.70;99.90;;;;;;26020878;22;20176;-69
2022/09/13 08:47:40;;;;;;;0.20;0.00;;;27.70;99.90;;;;;;26043098;22;20227;-68
2022/09/13 08:57:51;;;;;;;0.20;0.00;;;27.80;99.90;;;;;;25908288;23;20678;-69
2022/09/13 09:07:59;;;;;;;0.20;0.00;;;28.10;99.90;;;;;;25913730;22;20188;-68
2022/09/13 09:18:10;;;;;;;0.20;0.00;;;28.90;99.90;;;;;;25914791;23;20181;-71
2022/09/13 09:28:16;;;;;;;0.20;0.00;;;29.30;99.90;;;;;;25915159;23;20160;-69
2022/09/13 09:38:31;;;;;;;0.20;0.00;;;29.80;99.90;;;;;;25911850;23;20184;-68
2022/09/13 09:48:41;;;;;;;0.20;0.00;;;30.40;99.90;;;;;;25919365;22;20573;-67
2022/09/13 09:58:47;;;;;;;0.20;0.00;;;30.30;99.90;;;;;;26041797;22;20176;-69
2022/09/13 10:08:59;;;;;;;0.20;0.00;;;30.30;99.90;;;;;;26042939;22;20180;-69
2022/09/13 10:19:27;;;;;;;0.20;0.00;;;29.90;99.90;;;;;;26041050;22;20183;-69
2022/09/13 10:29:32;;;;;;;0.20;0.00;;;30.30;99.90;;;;;;26013322;22;20167;-68
2022/09/13 10:39:48;;;;;;;0.20;0.00;;;30.90;99.90;;;;;;26039785;22;20200;-69
2022/09/13 10:49:54;;;;;;;0.20;0.00;;;30.10;99.90;;;;;;25984504;22;20211;-68
2022/09/13 10:59:59;;;;;;;0.20;0.00;;;29.40;99.90;;;;;;26039068;22;20190;-68
2022/09/13 11:10:10;;;;;;;0.20;0.00;;;30.00;99.90;;;;;;26037378;22;20191;-70
2022/09/13 11:20:28;;;;;;;0.20;0.00;;;31.20;99.90;;;;;;26037030;22;20199;-69
2022/09/13 11:30:36;;;;;;;0.20;0.03;;;31.20;99.90;;;;;;26036139;22;20160;-69
2022/09/13 11:40:51;;;;;;;0.20;0.00;;;31.20;99.90;;;;;;26036239;22;20188;-68
2022/09/13 11:51:03;;;;;;;0.20;0.00;;;30.60;99.90;;;;;;26035178;22;20187;-69
2022/09/13 12:01:11;;;;;;;0.20;0.00;;;32.00;99.90;;;;;;26009535;22;20185;-69
2022/09/13 12:11:19;;;;;;;0.20;0.00;;;32.60;99.90;;;;;;26018909;22;20187;-68
2022/09/13 12:21:29;;;;;;;0.20;0.00;;;32.60;99.90;;;;;;26041650;22;20180;-68
2022/09/13 12:31:33;;;;;;;0.20;0.00;;;32.10;99.90;;;;;;26041700;22;20159;-70
2022/09/13 12:41:55;;;;;;;0.20;0.00;;;32.10;99.90;;;;;;26030920;22;20199;-68
2022/09/13 12:52:21;;;;;;;0.20;0.00;;;31.90;99.90;;;;;;26016065;22;20211;-68
2022/09/13 13:02:31;;;;;;;0.20;0.00;;;31.60;99.90;;;;;;26018358;22;20187;-70
2022/09/13 13:12:37;;;;;;;0.20;0.10;;;31.80;99.90;;;;;;26040858;22;20179;-68
2022/09/13 13:22:52;;;;;;;0.20;0.10;;;31.30;99.90;;;;;;26040702;22;20176;-68
2022/09/13 13:33:06;;;;;;;0.20;0.00;;;31.30;99.90;;;;;;26041213;22;20171;-68
2022/09/13 13:43:33;;;;;;;0.20;0.00;;;31.50;99.90;;;;;;26040848;22;20191;-68
2022/09/13 13:53:37;;;;;;;0.20;0.00;;;31.60;99.90;;;;;;26030799;22;20196;-69
2022/09/13 14:04:19;;;;;;;0.20;0.00;;;32.40;99.90;;;;;;26040207;22;20210;-68
2022/09/13 14:14:42;;;;;;;0.20;0.00;;;33.80;99.90;;;;;;26038006;22;20171;-68
2022/09/13 14:24:48;;;;;;;0.20;0.00;;;34.10;99.90;;;;;;26013834;22;20183;-70
2022/09/13 14:34:58;;;;;;;0.20;0.00;;;32.40;99.90;;;;;;26010599;22;20164;-68
2022/09/13 14:45:04;;;;;;;0.20;0.00;;;31.70;99.90;;;;;;26039138;22;20190;-67
2022/09/13 14:55:14;;;;;;;0.20;0.00;;;31.30;99.90;;;;;;26038182;22;20199;-69
2022/09/13 15:05:21;;;;;;;0.20;0.00;;;31.00;99.90;;;;;;26010862;22;20203;-69
2022/09/13 15:15:35;;;;;;;0.20;0.00;;;30.90;99.90;;;;;;26033987;22;20160;-69
2022/09/13 15:25:40;;;;;;;0.20;0.00;;;30.30;99.90;;;;;;26032453;22;20271;-67
2022/09/13 15:35:45;;;;;;;0.20;0.00;;;30.00;99.90;;;;;;26038015;22;20172;-68
2022/09/13 15:45:51;;;;;;;0.20;0.00;;;29.80;99.90;;;;;;26045770;22;20183;-69
2022/09/13 15:55:55;;;;;;;0.20;0.10;;;29.40;99.90;;;;;;26013007;22;20200;-69
2022/09/13 16:06:00;;;;;;;0.20;0.00;;;28.80;99.90;;;;;;26043714;22;20261;-70
2022/09/13 16:16:04;;;;;;;0.20;0.00;;;28.80;99.90;;;;;;26041465;22;20168;-69
2022/09/13 16:26:11;;;;;;;0.20;0.00;;;28.60;99.90;;;;;;26012283;22;20188;-74
2022/09/13 16:36:14;;;;;;;0.20;0.00;;;28.70;99.90;;;;;;26041979;22;20175;-69
2022/09/13 16:46:20;;;;;;;0.20;0.00;;;28.40;99.90;;;;;;26041519;22;20188;-69
2022/09/13 16:56:25;;;;;;;0.20;0.00;;;28.40;99.90;;;;;;25913232;23;20204;-69
2022/09/13 17:06:30;;;;;;;0.20;0.00;;;28.70;99.90;;;;;;25912970;23;20196;-70
2022/09/13 17:16:37;;;;;;;0.20;0.03;;;28.70;99.90;;;;;;25911264;22;20180;-70
2022/09/13 17:26:43;;;;;;;0.20;0.00;;;28.20;99.90;;;;;;25908619;23;20719;-68
2022/09/13 17:36:47;;;;;;;0.20;0.00;;;28.20;99.90;;;;;;25914275;23;20168;-69
2022/09/13 17:46:55;;;;;;;0.20;0.00;;;27.90;99.90;;;;;;25910618;23;20157;-69
2022/09/13 17:56:59;;;;;;;0.20;0.05;;;27.60;99.90;;;;;;26026223;22;20196;-68
2022/09/13 18:07:04;;;;;;;0.20;0.00;;;27.50;99.90;;;;;;26012842;22;20972;-69
2022/09/13 18:17:11;;;;;;;0.20;0.00;;;27.50;99.90;;;;;;26038161;22;20199;-69
2022/09/13 18:27:16;;;;;;;0.20;0.00;;;27.50;99.90;;;;;;26038796;22;20160;-69
2022/09/13 18:37:20;;;;;;;0.20;0.00;;;27.00;99.90;;;;;;26038327;22;20183;-70
2022/09/13 18:47:25;;;;;;;0.20;0.08;;;26.90;99.90;;;;;;26040097;22;20210;-69
2022/09/13 18:57:29;;;;;;;0.20;0.00;;;26.90;99.90;;;;;;26033752;22;20255;-71
2022/09/13 19:07:34;;;;;;;0.20;0.08;;;27.20;99.90;;;;;;26033386;22;20249;-69
2022/09/13 19:17:38;;;;;;;0.20;0.00;;;27.30;99.90;;;;;;26030858;22;20240;-70
2022/09/13 19:27:43;;;;;;;0.20;0.10;;;27.40;99.90;;;;;;26033909;22;20199;-69
2022/09/13 19:37:47;;;;;;;0.20;0.00;;;27.40;99.90;;;;;;26035264;22;20230;-69
2022/09/13 19:47:52;;;;;;;0.20;0.10;;;27.30;99.90;;;;;;26035653;22;20206;-68
2022/09/13 19:58:16;;;;;;;0.20;0.10;;;27.70;99.90;;;;;;25905862;22;20239;-69
2022/09/13 20:08:24;;;;;;;0.20;0.00;;;27.50;99.90;;;;;;25883067;23;20184;-69
2022/09/13 20:18:30;;;;;;;0.20;0.00;;;27.30;99.90;;;;;;25880895;23;20265;-69
2022/09/13 20:28:35;;;;;;;0.20;0.00;;;27.40;99.90;;;;;;25913855;23;20199;-69
2022/09/13 20:38:39;;;;;;;0.20;0.00;;;27.60;99.90;;;;;;25885715;23;20237;-69
2022/09/13 20:48:45;;;;;;;0.20;0.00;;;27.40;99.90;;;;;;25931371;22;20294;-69
2022/09/13 20:58:53;;;;;;;0.20;0.00;;;27.30;99.90;;;;;;26045531;22;20245;-70
2022/09/13 21:09:01;;;;;;;0.20;0.00;;;27.20;99.90;;;;;;26018626;22;20184;-68
2022/09/13 21:19:05;;;;;;;0.20;0.00;;;27.20;99.90;;;;;;26018795;22;20203;-68
2022/09/13 21:29:11;;;;;;;0.20;0.00;;;27.40;99.90;;;;;;26044966;22;20180;-69
2022/09/13 21:39:17;;;;;;;0.20;0.00;;;27.50;99.90;;;;;;26045541;22;20240;-68
2022/09/13 21:49:22;;;;;;;0.20;0.00;;;27.40;99.90;;;;;;26044137;22;20253;-67
2022/09/13 21:59:26;;;;;;;0.20;0.00;;;27.20;99.90;;;;;;26044970;22;20256;-68
2022/09/13 22:09:31;;;;;;;0.20;0.00;;;27.00;99.90;;;;;;26045267;22;20204;-68
2022/09/13 22:19:34;;;;;;;0.20;0.00;;;26.70;99.90;;;;;;26044650;22;20263;-68
2022/09/13 22:29:39;;;;;;;0.20;0.00;;;26.30;99.90;;;;;;26042660;22;20191;-67
2022/09/13 22:39:43;;;;;;;0.20;0.00;;;25.90;99.90;;;;;;26043262;22;20264;-68
2022/09/13 22:49:48;;;;;;;0.20;0.00;;;25.80;99.90;;;;;;26044288;22;20243;-69
2022/09/13 22:59:52;;;;;;;0.20;0.00;;;25.60;99.90;;;;;;25991204;22;20239;-69
2022/09/13 23:09:57;;;;;;;0.20;0.00;;;25.70;99.90;;;;;;26042753;22;20263;-68
2022/09/13 23:20:02;;;;;;;0.20;0.00;;;25.50;99.90;;;;;;26042345;22;20243;-69
2022/09/13 23:30:08;;;;;;;0.20;0.00;;;25.80;99.90;;;;;;26018815;22;20231;-68
2022/09/13 23:40:11;;;;;;;0.20;0.00;;;25.60;99.90;;;;;;26040866;22;20228;-70
2022/09/13 23:50:17;;;;;;;0.20;0.10;;;25.70;99.90;;;;;;26016277;22;20283;-69
